Time;durP1;ratioP1;P1;durP2;ratioP2;P2;SDS_P1;SDS_P2;PMS_P1;PMS_P2;Temp;Humidity;BMP_temperature;BMP_pressure;BME280_temperature;BME280_humidity;BME280_pressure;Samples;Min_cycle;Max_cycle;Signal;HPM_P1;HPM_P2
2020/12/24 00:00:18;;;;;;;0.47;0.47;;;10.50;99.90;;;;;;4385125;32;20081;-58
2020/12/24 00:02:43;;;;;;;2.75;0.90;;;10.50;99.90;;;;;;4398088;32;20478;-53
2020/12/24 00:05:09;;;;;;;2.40;0.47;;;10.60;99.90;;;;;;4396112;32;20074;-56
2020/12/24 00:07:34;;;;;;;0.43;0.43;;;10.60;99.90;;;;;;4384256;32;20095;-57
2020/12/24 00:10:01;;;;;;;0.30;0.30;;;10.60;99.90;;;;;;4383531;32;20062;-58
2020/12/24 00:12:27;;;;;;;0.65;0.60;;;10.60;99.90;;;;;;4398804;32;20414;-55
2020/12/24 00:14:52;;;;;;;3.08;0.57;;;10.70;99.90;;;;;;4398853;32;20125;-55
2020/12/24 00:17:18;;;;;;;0.28;0.28;;;10.70;99.90;;;;;;4395510;32;20500;-56
2020/12/24 00:19:43;;;;;;;0.70;0.62;;;10.70;99.90;;;;;;4383877;32;20066;-58
2020/12/24 00:22:09;;;;;;;0.43;0.43;;;10.80;99.90;;;;;;4385705;32;20071;-57
2020/12/24 00:24:34;;;;;;;1.15;0.47;;;10.80;99.90;;;;;;4399820;32;20073;-55
2020/12/24 00:27:01;;;;;;;0.60;0.60;;;10.80;99.90;;;;;;4401481;32;20094;-54
2020/12/24 00:29:26;;;;;;;0.35;0.35;;;10.90;99.90;;;;;;4401605;32;20065;-54
2020/12/24 00:31:52;;;;;;;0.40;0.40;;;10.90;99.90;;;;;;4401325;32;20070;-56
2020/12/24 00:34:17;;;;;;;0.57;0.57;;;10.90;99.90;;;;;;4400724;32;20409;-53
2020/12/24 00:36:42;;;;;;;0.30;0.30;;;10.90;99.90;;;;;;4401664;32;20062;-56
2020/12/24 00:39:08;;;;;;;2.72;1.10;;;10.90;99.90;;;;;;4400124;32;20070;-56
2020/12/24 00:41:33;;;;;;;0.57;0.57;;;10.80;99.90;;;;;;4401396;32;20066;-57
2020/12/24 00:43:59;;;;;;;0.30;0.30;;;10.90;99.90;;;;;;4401817;32;20125;-52
2020/12/24 00:46:24;;;;;;;1.10;0.60;;;10.90;99.90;;;;;;4400710;32;20084;-57
2020/12/24 00:48:50;;;;;;;0.80;0.40;;;10.90;99.90;;;;;;4401697;32;20065;-56
2020/12/24 00:51:15;;;;;;;1.42;0.73;;;10.80;99.90;;;;;;4400303;32;20413;-57
2020/12/24 00:53:41;;;;;;;0.30;0.30;;;10.90;99.90;;;;;;4400822;32;20417;-54
2020/12/24 00:56:07;;;;;;;0.40;0.40;;;10.90;99.90;;;;;;4400624;32;20082;-56
2020/12/24 00:58:32;;;;;;;0.30;0.30;;;10.90;99.90;;;;;;4400684;32;20086;-53
2020/12/24 01:00:58;;;;;;;0.35;0.35;;;10.80;99.90;;;;;;4399242;32;20058;-57
2020/12/24 01:03:23;;;;;;;1.05;0.40;;;10.80;99.90;;;;;;4401065;32;20437;-58
2020/12/24 01:05:49;;;;;;;0.52;0.52;;;10.80;99.90;;;;;;4394012;32;20152;-56
2020/12/24 01:08:15;;;;;;;0.43;0.40;;;10.70;99.90;;;;;;4385593;32;20070;-56
2020/12/24 01:10:41;;;;;;;0.62;0.60;;;10.70;99.90;;;;;;4389751;32;20070;-57
2020/12/24 01:13:07;;;;;;;0.30;0.30;;;10.70;99.90;;;;;;4399225;32;20070;-56
2020/12/24 01:15:32;;;;;;;5.87;0.65;;;10.70;99.90;;;;;;4399522;32;20173;-57
2020/12/24 01:17:58;;;;;;;0.57;0.40;;;10.70;99.90;;;;;;4392964;32;20079;-56
2020/12/24 01:20:23;;;;;;;3.55;1.48;;;10.70;99.90;;;;;;4385668;32;20063;-56
2020/12/24 01:22:49;;;;;;;0.30;0.30;;;10.70;99.90;;;;;;4383644;32;20070;-54
2020/12/24 01:25:14;;;;;;;0.30;0.30;;;10.70;99.90;;;;;;4385131;32;20079;-53
2020/12/24 01:27:40;;;;;;;0.30;0.30;;;10.70;99.90;;;;;;4384535;32;20074;-58
2020/12/24 01:30:06;;;;;;;0.30;0.30;;;10.70;99.90;;;;;;4384528;32;20443;-55
2020/12/24 01:32:31;;;;;;;0.55;0.55;;;10.70;99.90;;;;;;4384731;32;20256;-58
2020/12/24 01:34:57;;;;;;;0.30;0.30;;;10.70;99.90;;;;;;4385271;32;20075;-52
2020/12/24 01:37:22;;;;;;;0.30;0.30;;;10.60;99.90;;;;;;4385630;32;20464;-57
2020/12/24 01:39:48;;;;;;;0.22;0.22;;;10.60;99.90;;;;;;4384959;32;20067;-53
2020/12/24 01:42:14;;;;;;;0.30;0.30;;;10.60;99.90;;;;;;4385167;32;20141;-53
2020/12/24 01:44:40;;;;;;;0.30;0.30;;;10.60;99.90;;;;;;4382941;32;20071;-55
2020/12/24 01:47:05;;;;;;;0.30;0.30;;;10.60;99.90;;;;;;4384340;32;20070;-56
2020/12/24 01:49:32;;;;;;;0.37;0.37;;;10.50;99.90;;;;;;4384579;32;20401;-55
2020/12/24 01:51:58;;;;;;;0.40;0.40;;;10.50;99.90;;;;;;4385443;32;20137;-58
2020/12/24 01:54:25;;;;;;;0.30;0.30;;;10.50;99.90;;;;;;4371255;32;20059;-58
2020/12/24 01:56:51;;;;;;;0.40;0.40;;;10.40;99.90;;;;;;4383433;32;20070;-57
2020/12/24 01:59:18;;;;;;;0.20;0.20;;;10.40;99.90;;;;;;4383454;32;20070;-58
2020/12/24 02:01:45;;;;;;;0.30;0.30;;;10.40;99.90;;;;;;4385392;32;20073;-57
2020/12/24 02:04:12;;;;;;;0.40;0.40;;;10.40;99.90;;;;;;4370906;32;20399;-56
2020/12/24 02:06:39;;;;;;;0.40;0.40;;;10.40;99.90;;;;;;4395865;32;20065;-54
2020/12/24 02:09:05;;;;;;;0.30;0.30;;;10.40;99.90;;;;;;4400359;32;20460;-57
2020/12/24 02:11:30;;;;;;;0.40;0.40;;;10.40;99.90;;;;;;4397576;32;20062;-57
2020/12/24 02:13:57;;;;;;;0.30;0.30;;;10.30;99.90;;;;;;4399783;32;20435;-55
2020/12/24 02:16:22;;;;;;;0.30;0.30;;;10.40;99.90;;;;;;4386296;32;20476;-56
2020/12/24 02:18:48;;;;;;;0.20;0.20;;;10.40;99.90;;;;;;4387279;32;20082;-55
2020/12/24 02:21:13;;;;;;;0.20;0.20;;;10.40;99.90;;;;;;4385144;32;20066;-54
2020/12/24 02:23:38;;;;;;;0.28;0.28;;;10.40;99.90;;;;;;4384478;32;20464;-57
2020/12/24 02:26:04;;;;;;;0.30;0.30;;;10.30;99.90;;;;;;4384360;32;20083;-56
2020/12/24 02:28:29;;;;;;;0.40;0.40;;;10.40;99.90;;;;;;4383797;32;20071;-57
2020/12/24 02:30:56;;;;;;;0.30;0.30;;;10.30;99.90;;;;;;4384798;32;20066;-54
2020/12/24 02:33:22;;;;;;;0.37;0.37;;;10.30;99.90;;;;;;4384054;32;20078;-56
2020/12/24 02:35:47;;;;;;;0.60;0.40;;;10.40;99.90;;;;;;4385072;32;20109;-57
2020/12/24 02:38:12;;;;;;;0.20;0.20;;;10.30;99.90;;;;;;4384597;32;20079;-54
2020/12/24 02:40:38;;;;;;;0.30;0.30;;;10.30;99.90;;;;;;4384238;32;20566;-53
2020/12/24 02:43:03;;;;;;;0.50;0.50;;;10.30;99.90;;;;;;4384744;32;20067;-56
2020/12/24 02:45:29;;;;;;;0.30;0.30;;;10.30;99.90;;;;;;4384523;32;20077;-58
2020/12/24 02:47:54;;;;;;;0.32;0.32;;;10.20;99.90;;;;;;4383937;32;20083;-54
2020/12/24 02:50:20;;;;;;;0.30;0.30;;;10.20;99.90;;;;;;4385122;32;20664;-53
2020/12/24 02:52:47;;;;;;;0.30;0.30;;;10.20;99.90;;;;;;4384165;32;20098;-57
2020/12/24 02:55:13;;;;;;;0.50;0.50;;;10.20;99.90;;;;;;4383161;32;20065;-56
2020/12/24 02:57:38;;;;;;;0.30;0.30;;;10.10;99.90;;;;;;4384067;32;20125;-53
2020/12/24 03:00:08;;;;;;;0.20;0.20;;;10.10;99.90;;;;;;4384461;32;20434;-57
2020/12/24 03:02:33;;;;;;;0.40;0.40;;;10.00;99.90;;;;;;4382600;32;20078;-57
2020/12/24 03:04:59;;;;;;;0.65;0.50;;;10.10;99.90;;;;;;4384687;32;20362;-57
2020/12/24 03:07:24;;;;;;;0.40;0.40;;;10.10;99.90;;;;;;4399484;32;20062;-57
2020/12/24 03:09:50;;;;;;;0.43;0.43;;;10.10;99.90;;;;;;4398705;32;20075;-57
2020/12/24 03:12:15;;;;;;;0.30;0.30;;;10.10;99.90;;;;;;4398629;32;20086;-55
2020/12/24 03:14:41;;;;;;;0.40;0.40;;;10.00;99.90;;;;;;4399485;32;20121;-55
2020/12/24 03:17:06;;;;;;;0.73;0.57;;;10.10;99.90;;;;;;4397089;32;20123;-57
2020/12/24 03:19:32;;;;;;;0.30;0.30;;;10.10;99.90;;;;;;4384814;32;20070;-55
2020/12/24 03:21:58;;;;;;;0.30;0.30;;;10.10;99.90;;;;;;4384530;32;20198;-52
2020/12/24 03:24:24;;;;;;;0.30;0.30;;;10.10;99.90;;;;;;4383290;32;20061;-55
2020/12/24 03:26:49;;;;;;;0.22;0.22;;;10.10;99.90;;;;;;4383238;32;20079;-56
2020/12/24 03:29:15;;;;;;;1.15;0.88;;;10.20;99.90;;;;;;4384089;32;20075;-54
2020/12/24 03:31:40;;;;;;;0.30;0.30;;;10.20;99.90;;;;;;4384408;32;20071;-54
2020/12/24 03:34:06;;;;;;;0.70;0.40;;;10.20;99.90;;;;;;4384132;32;20492;-57
2020/12/24 03:36:31;;;;;;;0.25;0.25;;;10.20;99.90;;;;;;4384134;32;20110;-55
2020/12/24 03:38:57;;;;;;;0.30;0.30;;;10.30;99.90;;;;;;4383518;32;20528;-58
2020/12/24 03:41:22;;;;;;;0.30;0.30;;;10.30;99.90;;;;;;4383086;32;20073;-55
2020/12/24 03:43:48;;;;;;;0.30;0.30;;;10.30;99.90;;;;;;4383119;32;20057;-56
2020/12/24 03:46:13;;;;;;;0.28;0.28;;;10.40;99.90;;;;;;4384014;32;20365;-56
2020/12/24 03:48:39;;;;;;;0.65;0.65;;;10.30;99.90;;;;;;4382503;32;20090;-57
2020/12/24 03:51:04;;;;;;;0.37;0.37;;;10.40;99.90;;;;;;4383978;32;20099;-57
2020/12/24 03:53:30;;;;;;;0.40;0.40;;;10.30;99.90;;;;;;4382889;32;20078;-54
2020/12/24 03:55:55;;;;;;;0.20;0.20;;;10.30;99.90;;;;;;4384890;32;20528;-56
2020/12/24 03:58:21;;;;;;;0.30;0.30;;;10.30;99.90;;;;;;4386495;32;20530;-56
2020/12/24 04:00:46;;;;;;;0.25;0.25;;;10.30;99.90;;;;;;4386388;32;20070;-54
2020/12/24 04:03:11;;;;;;;0.62;0.50;;;10.30;99.90;;;;;;4386900;32;20523;-57
2020/12/24 04:05:37;;;;;;;0.25;0.25;;;10.30;99.90;;;;;;4391096;32;20083;-56
2020/12/24 04:08:03;;;;;;;0.30;0.30;;;10.30;99.90;;;;;;4402068;32;20075;-56
2020/12/24 04:10:29;;;;;;;0.55;0.32;;;10.30;99.90;;;;;;4400409;32;20079;-54
2020/12/24 04:12:54;;;;;;;0.40;0.40;;;10.30;99.90;;;;;;4400956;32;20073;-57
2020/12/24 04:15:20;;;;;;;0.25;0.25;;;10.30;99.90;;;;;;4400790;32;20070;-57
2020/12/24 04:17:45;;;;;;;0.25;0.25;;;10.30;99.90;;;;;;4396063;32;20082;-56
2020/12/24 04:20:11;;;;;;;0.30;0.30;;;10.30;99.90;;;;;;4386452;32;20544;-56
2020/12/24 04:22:36;;;;;;;0.30;0.30;;;10.30;99.90;;;;;;4384731;32;20125;-55
2020/12/24 04:25:02;;;;;;;0.20;0.20;;;10.30;99.90;;;;;;4386461;32;20126;-54
2020/12/24 04:27:29;;;;;;;2.20;0.62;;;10.30;99.90;;;;;;4386687;32;20059;-54
2020/12/24 04:29:54;;;;;;;0.32;0.32;;;10.20;99.90;;;;;;4386606;32;20075;-54
2020/12/24 04:32:20;;;;;;;0.43;0.37;;;10.20;99.90;;;;;;4385652;32;20069;-56
2020/12/24 04:34:45;;;;;;;5.45;1.05;;;10.20;99.90;;;;;;4385888;32;20058;-57
2020/12/24 04:37:11;;;;;;;0.30;0.30;;;10.20;99.90;;;;;;4386352;32;20098;-57
2020/12/24 04:39:36;;;;;;;0.30;0.30;;;10.20;99.90;;;;;;4386033;32;20107;-54
2020/12/24 04:42:02;;;;;;;0.20;0.20;;;10.10;99.90;;;;;;4385907;32;20074;-56
2020/12/24 04:44:28;;;;;;;0.40;0.40;;;10.10;99.90;;;;;;4386569;32;20058;-56
2020/12/24 04:46:56;;;;;;;4.75;0.47;;;10.10;99.90;;;;;;4384790;32;20095;-56
2020/12/24 04:49:25;;;;;;;0.30;0.30;;;10.00;99.90;;;;;;4386333;32;20078;-57
2020/12/24 04:51:51;;;;;;;0.30;0.30;;;10.00;99.90;;;;;;4385799;32;20070;-56
2020/12/24 04:54:17;;;;;;;0.35;0.35;;;10.00;99.90;;;;;;4372049;32;20118;-56
2020/12/24 04:56:43;;;;;;;0.30;0.30;;;10.00;99.90;;;;;;4385746;32;20527;-55
2020/12/24 04:59:08;;;;;;;0.30;0.30;;;10.00;99.90;;;;;;4384881;32;20063;-55
2020/12/24 05:01:34;;;;;;;1.50;0.55;;;10.10;99.90;;;;;;4385406;32;20083;-56
2020/12/24 05:04:00;;;;;;;0.30;0.30;;;10.10;99.90;;;;;;4384481;32;20066;-52
2020/12/24 05:06:26;;;;;;;1.95;0.77;;;10.00;99.90;;;;;;4395984;32;20117;-56
2020/12/24 05:08:53;;;;;;;0.40;0.40;;;10.00;99.90;;;;;;4401039;32;20478;-57
2020/12/24 05:11:28;;;;;;;0.62;0.62;;;10.00;99.90;;;;;;4398231;32;20099;-52
2020/12/24 05:13:55;;;;;;;0.20;0.20;;;10.00;99.90;;;;;;4400081;32;20059;-57
2020/12/24 05:16:20;;;;;;;0.40;0.40;;;10.00;99.90;;;;;;4400409;32;20086;-57
2020/12/24 05:18:46;;;;;;;0.20;0.20;;;10.00;99.90;;;;;;4388049;32;20062;-53
2020/12/24 05:21:30;;;;;;;0.30;0.30;;;10.00;99.90;;;;;;4372596;32;20079;-54
2020/12/24 05:23:55;;;;;;;0.20;0.20;;;10.00;99.90;;;;;;4384183;32;20079;-55
2020/12/24 05:26:21;;;;;;;0.68;0.68;;;10.00;99.90;;;;;;4385194;32;20067;-57
2020/12/24 05:28:47;;;;;;;0.30;0.30;;;10.00;99.90;;;;;;4384853;32;20075;-54
2020/12/24 05:33:59;;;;;;;0.37;0.37;;;10.00;99.90;;;;;;4383857;32;20520;-52
2020/12/24 05:36:24;;;;;;;0.45;0.45;;;10.00;99.90;;;;;;4385990;32;20086;-54
2020/12/24 05:38:51;;;;;;;0.30;0.30;;;9.90;99.90;;;;;;4385994;32;20070;-56
2020/12/24 05:41:37;;;;;;;0.90;0.40;;;9.90;99.90;;;;;;4385027;32;20070;-53
2020/12/24 05:44:07;;;;;;;0.30;0.30;;;9.90;99.90;;;;;;4373546;32;20456;-56
2020/12/24 05:46:43;;;;;;;7.28;0.50;;;10.00;99.90;;;;;;4384610;32;20087;-55
2020/12/24 05:49:14;;;;;;;0.40;0.40;;;9.90;99.90;;;;;;4384852;32;20438;-56
2020/12/24 05:51:39;;;;;;;;;;;10.00;99.90;;;;;;4385232;32;20117;-57
2020/12/24 05:54:06;;;;;;;0.20;0.20;;;10.00;99.90;;;;;;4384640;32;20286;-56
2020/12/24 05:56:35;;;;;;;0.30;0.30;;;10.00;99.90;;;;;;4384698;32;20099;-56
2020/12/24 05:59:04;;;;;;;0.40;0.40;;;10.00;99.90;;;;;;4384603;32;20066;-54
2020/12/24 06:01:39;;;;;;;0.30;0.30;;;9.90;99.90;;;;;;4385170;32;20186;-57
2020/12/24 06:04:08;;;;;;;0.50;0.50;;;9.90;99.90;;;;;;4401131;32;20120;-55
2020/12/24 06:06:49;;;;;;;0.47;0.47;;;9.90;99.90;;;;;;4398187;32;20062;-55
2020/12/24 06:09:18;;;;;;;0.35;0.35;;;9.90;99.90;;;;;;4390123;32;20054;-54
2020/12/24 06:11:47;;;;;;;0.30;0.30;;;9.80;99.90;;;;;;4394775;32;20096;-57
2020/12/24 06:14:21;;;;;;;0.30;0.30;;;9.80;99.90;;;;;;4399071;32;20417;-55
2020/12/24 06:16:48;;;;;;;0.50;0.50;;;9.80;99.90;;;;;;4387596;32;20129;-55
2020/12/24 06:19:16;;;;;;;0.73;0.73;;;9.70;99.90;;;;;;4383562;32;20071;-56
2020/12/24 06:21:42;;;;;;;0.20;0.20;;;9.70;99.90;;;;;;4385334;32;20135;-54
2020/12/24 06:24:09;;;;;;;1.58;0.45;;;9.70;99.90;;;;;;4385261;32;20076;-56
2020/12/24 06:26:44;;;;;;;0.40;0.40;;;9.70;99.90;;;;;;4385061;32;20062;-57
2020/12/24 06:29:10;;;;;;;0.37;0.37;;;9.60;99.90;;;;;;4384825;32;20746;-54
2020/12/24 06:31:40;;;;;;;0.85;0.73;;;9.60;99.90;;;;;;4385422;32;20070;-55
2020/12/24 06:34:25;;;;;;;0.40;0.40;;;9.50;99.90;;;;;;4384233;32;20114;-55
2020/12/24 06:36:51;;;;;;;0.55;0.52;;;9.50;99.90;;;;;;4383119;32;20070;-56
2020/12/24 06:39:39;;;;;;;0.47;0.47;;;9.40;99.90;;;;;;4383354;32;20066;-57
2020/12/24 06:42:04;;;;;;;0.30;0.30;;;9.30;99.90;;;;;;4382784;32;20083;-54
2020/12/24 06:44:47;;;;;;;0.20;0.20;;;9.30;99.90;;;;;;4383258;32;20070;-56
2020/12/24 06:47:15;;;;;;;0.20;0.20;;;9.20;99.90;;;;;;4383097;32;20074;-56
2020/12/24 06:49:41;;;;;;;0.20;0.20;;;9.20;99.90;;;;;;4383620;32;20070;-55
2020/12/24 06:52:06;;;;;;;0.40;0.40;;;9.20;99.90;;;;;;4384787;32;20095;-55
2020/12/24 06:54:32;;;;;;;0.30;0.30;;;9.10;99.90;;;;;;4384006;32;20552;-52
2020/12/24 06:57:21;;;;;;;3.20;0.77;;;9.10;99.90;;;;;;4386528;32;20543;-55
2020/12/24 06:59:49;;;;;;;0.30;0.30;;;9.10;99.90;;;;;;4397774;32;20524;-55
2020/12/24 07:02:29;;;;;;;0.32;0.32;;;9.00;99.90;;;;;;4399057;32;20120;-52
2020/12/24 07:04:55;;;;;;;0.30;0.30;;;9.00;99.90;;;;;;4393216;32;20074;-54
2020/12/24 07:07:42;;;;;;;0.37;0.37;;;9.00;99.90;;;;;;4384419;32;20070;-57
2020/12/24 07:10:08;;;;;;;2.78;0.77;;;9.00;99.90;;;;;;4387593;32;20066;-54
2020/12/24 07:12:35;;;;;;;3.20;1.20;;;9.00;99.90;;;;;;4384098;32;20087;-57
2020/12/24 07:15:21;;;;;;;0.30;0.30;;;9.00;99.90;;;;;;4382555;32;20133;-57
2020/12/24 07:17:46;;;;;;;0.28;0.28;;;8.90;99.90;;;;;;4389639;32;20067;-54
2020/12/24 07:20:16;;;;;;;0.30;0.30;;;8.90;99.90;;;;;;4395195;32;20086;-57
2020/12/24 07:22:43;;;;;;;1.20;0.68;;;8.90;99.90;;;;;;4384455;32;20077;-56
2020/12/24 07:25:09;;;;;;;1.45;0.85;;;8.90;99.90;;;;;;4384137;32;20079;-55
2020/12/24 07:27:51;;;;;;;0.85;0.85;;;8.80;99.90;;;;;;4384258;32;20069;-55
2020/12/24 07:30:21;;;;;;;2.83;0.95;;;8.80;99.90;;;;;;4383711;32;20062;-54
2020/12/24 07:32:51;;;;;;;0.30;0.30;;;8.80;99.90;;;;;;4384587;32;20067;-56
2020/12/24 07:35:17;;;;;;;0.73;0.52;;;8.80;99.90;;;;;;4384851;32;20066;-53
2020/12/24 07:37:42;;;;;;;0.40;0.40;;;8.80;99.90;;;;;;4383064;32;20622;-57
2020/12/24 07:40:09;;;;;;;0.45;0.45;;;8.80;99.90;;;;;;4384963;32;20067;-53
2020/12/24 07:42:35;;;;;;;0.40;0.40;;;8.70;99.90;;;;;;4384114;32;20086;-54
2020/12/24 07:45:00;;;;;;;0.40;0.40;;;8.60;99.90;;;;;;4383605;32;20118;-55
2020/12/24 07:47:26;;;;;;;0.32;0.32;;;8.60;99.90;;;;;;4384294;32;20070;-55
2020/12/24 07:49:52;;;;;;;0.30;0.30;;;8.50;99.90;;;;;;4384060;32;20091;-54
2020/12/24 07:52:17;;;;;;;3.75;1.67;;;8.40;99.90;;;;;;4384238;32;20070;-55
2020/12/24 07:54:43;;;;;;;0.60;0.60;;;8.50;99.90;;;;;;4384242;32;20118;-57
2020/12/24 07:57:08;;;;;;;2.95;1.05;;;8.40;99.90;;;;;;4392094;32;20091;-53
2020/12/24 07:59:34;;;;;;;0.20;0.20;;;8.40;99.90;;;;;;4399295;32;20425;-56
2020/12/24 08:02:03;;;;;;;0.40;0.40;;;8.40;99.90;;;;;;4397385;32;20140;-53
2020/12/24 08:04:29;;;;;;;3.12;1.45;;;8.50;99.90;;;;;;4397485;32;20117;-56
2020/12/24 08:06:54;;;;;;;3.08;0.90;;;8.40;99.90;;;;;;4385768;32;20074;-55
2020/12/24 08:09:20;;;;;;;20.15;1.90;;;8.50;99.90;;;;;;4384247;32;20118;-56
2020/12/24 08:11:55;;;;;;;0.30;0.30;;;8.50;99.90;;;;;;4394591;32;20057;-58
2020/12/24 08:14:22;;;;;;;0.20;0.20;;;8.50;99.90;;;;;;4399132;32;20065;-54
2020/12/24 08:16:48;;;;;;;0.20;0.20;;;8.50;99.90;;;;;;4398889;32;20065;-54
2020/12/24 08:19:40;;;;;;;0.30;0.30;;;8.50;99.90;;;;;;4383425;32;20419;-57
2020/12/24 08:22:20;;;;;;;0.22;0.22;;;8.50;99.90;;;;;;4382402;32;20500;-58
2020/12/24 08:24:46;;;;;;;0.70;0.70;;;8.50;99.90;;;;;;4369908;32;20137;-53
2020/12/24 08:27:13;;;;;;;0.20;0.20;;;8.50;99.90;;;;;;4382322;32;20507;-58
2020/12/24 08:29:39;;;;;;;0.40;0.40;;;8.60;99.90;;;;;;4384361;32;20080;-59
2020/12/24 08:32:05;;;;;;;0.43;0.40;;;8.60;99.90;;;;;;4383910;32;20074;-54
2020/12/24 08:34:30;;;;;;;0.35;0.35;;;8.60;99.90;;;;;;4383119;32;20074;-53
2020/12/24 08:36:57;;;;;;;0.40;0.40;;;8.60;99.90;;;;;;4383682;32;20066;-54
2020/12/24 08:39:23;;;;;;;0.30;0.30;;;8.60;99.90;;;;;;4369240;32;20488;-59
2020/12/24 08:41:57;;;;;;;0.20;0.20;;;8.50;99.90;;;;;;4379675;32;125558;-54
2020/12/24 08:44:24;;;;;;;0.20;0.20;;;8.50;99.90;;;;;;4384108;32;20058;-52
2020/12/24 08:47:08;;;;;;;0.30;0.30;;;8.50;99.90;;;;;;4385169;32;20058;-55
2020/12/24 08:49:40;;;;;;;0.20;0.20;;;8.50;99.90;;;;;;4385119;32;20405;-55
2020/12/24 08:52:10;;;;;;;0.37;0.37;;;8.50;99.90;;;;;;4372304;32;20078;-56
2020/12/24 08:54:36;;;;;;;1.85;1.05;;;8.50;99.90;;;;;;4384639;32;20125;-54
2020/12/24 08:57:03;;;;;;;2.20;0.80;;;8.50;99.90;;;;;;4391777;32;20507;-53
2020/12/24 08:59:29;;;;;;;3.92;1.15;;;8.60;99.90;;;;;;4386829;32;20125;-53
2020/12/24 09:01:56;;;;;;;0.30;0.30;;;8.60;99.90;;;;;;4400087;32;20059;-57
2020/12/24 09:04:22;;;;;;;0.43;0.43;;;8.60;99.90;;;;;;4400155;32;20054;-56
2020/12/24 09:06:48;;;;;;;2.12;0.90;;;8.50;99.90;;;;;;4389426;32;20504;-53
2020/12/24 09:09:29;;;;;;;0.30;0.30;;;8.60;99.90;;;;;;4387161;32;20083;-57
2020/12/24 09:11:54;;;;;;;0.40;0.40;;;8.60;99.90;;;;;;4397779;32;20062;-54
2020/12/24 09:14:23;;;;;;;1.00;0.40;;;8.60;99.90;;;;;;4398833;32;20118;-55
2020/12/24 09:16:58;;;;;;;0.37;0.37;;;8.60;99.90;;;;;;4401927;32;20074;-56
2020/12/24 09:19:24;;;;;;;0.40;0.40;;;8.70;99.90;;;;;;4385437;32;20137;-57
2020/12/24 09:21:53;;;;;;;0.88;0.62;;;8.70;99.90;;;;;;4386002;32;20411;-56
2020/12/24 09:24:19;;;;;;;0.40;0.40;;;8.70;99.90;;;;;;4384985;32;20091;-56
2020/12/24 09:26:46;;;;;;;1.00;0.95;;;8.70;99.90;;;;;;4384255;32;20071;-53
2020/12/24 09:29:12;;;;;;;0.30;0.30;;;8.60;99.90;;;;;;4386625;32;20058;-54
2020/12/24 09:31:38;;;;;;;0.20;0.20;;;8.70;99.90;;;;;;4385452;32;20058;-52
2020/12/24 09:34:05;;;;;;;0.40;0.40;;;8.70;99.90;;;;;;4384824;32;20079;-56
2020/12/24 09:36:31;;;;;;;0.70;0.70;;;8.80;99.90;;;;;;4383864;32;20059;-53
2020/12/24 09:38:56;;;;;;;0.40;0.40;;;8.70;99.90;;;;;;4384556;32;20078;-55
2020/12/24 09:41:21;;;;;;;0.37;0.37;;;8.70;99.90;;;;;;4383501;32;20492;-57
2020/12/24 09:43:47;;;;;;;0.30;0.30;;;8.80;99.90;;;;;;4385599;32;20133;-54
2020/12/24 09:46:14;;;;;;;0.52;0.50;;;8.70;99.90;;;;;;4386284;32;20121;-57
2020/12/24 09:48:39;;;;;;;0.57;0.57;;;8.80;99.90;;;;;;4385152;32;20077;-53
2020/12/24 09:51:05;;;;;;;0.40;0.40;;;8.80;99.90;;;;;;4385996;32;20067;-55
2020/12/24 09:53:30;;;;;;;7.03;1.95;;;8.90;99.90;;;;;;4384120;32;20456;-55
2020/12/24 09:55:56;;;;;;;0.30;0.30;;;8.90;99.90;;;;;;4384010;32;20062;-56
2020/12/24 09:58:22;;;;;;;0.55;0.35;;;8.90;99.90;;;;;;4399583;32;20173;-56
2020/12/24 10:00:49;;;;;;;0.80;0.47;;;8.90;99.90;;;;;;4399433;32;20065;-56
2020/12/24 10:03:14;;;;;;;0.30;0.30;;;8.90;99.90;;;;;;4399537;32;20054;-57
2020/12/24 10:05:40;;;;;;;0.50;0.50;;;8.90;99.90;;;;;;4395217;32;20073;-54
2020/12/24 10:08:05;;;;;;;1.55;0.45;;;8.90;99.90;;;;;;4385499;32;20117;-56
2020/12/24 10:10:31;;;;;;;0.30;0.30;;;8.80;99.90;;;;;;4388005;32;20086;-56
2020/12/24 10:12:56;;;;;;;0.30;0.30;;;8.80;99.90;;;;;;4400550;32;20373;-53
2020/12/24 10:15:22;;;;;;;0.40;0.40;;;8.80;99.90;;;;;;4399437;32;20074;-53
2020/12/24 10:17:47;;;;;;;0.40;0.40;;;8.90;99.90;;;;;;4394492;32;20487;-57
2020/12/24 10:20:12;;;;;;;1.65;1.27;;;8.80;99.90;;;;;;4385499;32;20074;-58
2020/12/24 10:22:38;;;;;;;0.20;0.20;;;8.80;99.90;;;;;;4384933;32;20118;-56
2020/12/24 10:25:03;;;;;;;0.85;0.77;;;8.90;99.90;;;;;;4385436;32;20075;-54
2020/12/24 10:27:29;;;;;;;0.30;0.30;;;8.90;99.90;;;;;;4384038;32;20066;-54
2020/12/24 10:29:54;;;;;;;0.30;0.30;;;8.90;99.90;;;;;;4385450;32;20524;-56
2020/12/24 10:32:20;;;;;;;0.28;0.28;;;8.90;99.90;;;;;;4384477;32;20054;-57
2020/12/24 10:34:45;;;;;;;0.50;0.50;;;8.90;99.90;;;;;;4384931;32;20165;-58
2020/12/24 10:37:11;;;;;;;0.40;0.40;;;8.90;99.90;;;;;;4384551;32;20464;-56
2020/12/24 10:39:36;;;;;;;0.20;0.20;;;9.00;99.90;;;;;;4384615;32;20066;-54
2020/12/24 10:42:02;;;;;;;4.70;1.15;;;8.90;99.90;;;;;;4385220;32;20058;-57
2020/12/24 10:44:28;;;;;;;0.28;0.28;;;8.90;99.90;;;;;;4384769;32;20122;-54
2020/12/24 10:46:54;;;;;;;1.25;1.00;;;8.80;99.90;;;;;;4384369;32;20544;-56
2020/12/24 10:49:20;;;;;;;0.20;0.20;;;8.80;99.90;;;;;;4385889;32;20560;-56
2020/12/24 10:51:45;;;;;;;0.30;0.30;;;8.80;99.90;;;;;;4385162;32;20079;-54
2020/12/24 10:54:11;;;;;;;0.35;0.35;;;8.80;99.90;;;;;;4385126;32;20059;-57
2020/12/24 10:56:36;;;;;;;0.20;0.20;;;8.80;99.90;;;;;;4388246;32;20081;-56
2020/12/24 10:59:02;;;;;;;0.32;0.32;;;8.80;99.90;;;;;;4400227;32;20571;-54
2020/12/24 11:01:27;;;;;;;0.20;0.20;;;8.70;99.90;;;;;;4400130;32;20062;-57
2020/12/24 11:03:53;;;;;;;4.60;1.00;;;8.60;99.90;;;;;;4399855;32;20055;-54
2020/12/24 11:06:22;;;;;;;0.20;0.20;;;8.50;99.90;;;;;;4390919;32;20062;-55
2020/12/24 11:08:48;;;;;;;0.20;0.20;;;8.40;99.90;;;;;;4385416;32;20058;-57
2020/12/24 11:11:14;;;;;;;0.30;0.30;;;8.20;99.90;;;;;;4393288;32;20370;-57
2020/12/24 11:13:43;;;;;;;0.20;0.20;;;8.10;99.90;;;;;;4399381;32;20075;-54
2020/12/24 11:16:09;;;;;;;0.30;0.30;;;8.10;99.90;;;;;;4398436;32;20066;-58
2020/12/24 11:18:36;;;;;;;0.30;0.30;;;8.10;99.90;;;;;;4388337;32;20063;-54
2020/12/24 11:21:03;;;;;;;0.20;0.20;;;8.00;99.90;;;;;;4384195;32;20540;-55
2020/12/24 11:23:28;;;;;;;0.20;0.20;;;7.90;99.90;;;;;;4384523;32;20071;-55
2020/12/24 11:25:54;;;;;;;0.20;0.20;;;7.80;99.90;;;;;;4384581;32;20066;-55
2020/12/24 11:28:19;;;;;;;0.20;0.20;;;7.70;99.90;;;;;;4383492;32;20062;-56
2020/12/24 11:30:45;;;;;;;0.40;0.40;;;7.50;99.90;;;;;;4382906;32;20083;-54
2020/12/24 11:33:10;;;;;;;0.30;0.30;;;7.60;99.90;;;;;;4383660;32;20477;-53
2020/12/24 11:35:36;;;;;;;0.30;0.30;;;7.60;99.90;;;;;;4385054;32;20193;-57
2020/12/24 11:38:01;;;;;;;0.30;0.30;;;7.40;99.90;;;;;;4382629;32;20058;-53
2020/12/24 11:40:27;;;;;;;0.20;0.20;;;7.40;99.90;;;;;;4384930;32;20066;-55
2020/12/24 11:42:52;;;;;;;0.37;0.37;;;7.30;99.90;;;;;;4383209;32;20117;-57
2020/12/24 11:45:18;;;;;;;0.20;0.20;;;7.30;99.90;;;;;;4390425;32;20069;-58
2020/12/24 11:47:43;;;;;;;0.30;0.30;;;7.40;99.90;;;;;;4399641;32;20525;-57
2020/12/24 11:50:09;;;;;;;0.20;0.20;;;7.30;99.90;;;;;;4397211;32;20062;-53
2020/12/24 11:52:36;;;;;;;0.20;0.20;;;7.30;99.90;;;;;;4395072;32;20063;-57
2020/12/24 11:55:03;;;;;;;0.20;0.20;;;7.30;99.90;;;;;;4383853;32;20083;-54
2020/12/24 11:57:29;;;;;;;0.20;0.20;;;7.10;99.90;;;;;;4392745;32;20074;-58
2020/12/24 11:59:54;;;;;;;0.20;0.20;;;7.10;99.90;;;;;;4399487;32;20503;-58
2020/12/24 12:02:20;;;;;;;0.30;0.30;;;7.00;99.90;;;;;;4398839;32;20070;-57
2020/12/24 12:04:45;;;;;;;0.30;0.30;;;7.00;99.90;;;;;;4399127;32;20073;-59
2020/12/24 12:07:11;;;;;;;0.20;0.20;;;6.90;99.90;;;;;;4385492;32;20059;-56
2020/12/24 12:09:36;;;;;;;0.30;0.30;;;6.80;99.90;;;;;;4384654;32;20571;-58
2020/12/24 12:12:02;;;;;;;0.30;0.30;;;6.80;99.90;;;;;;4397177;32;20066;-57
2020/12/24 12:14:27;;;;;;;0.20;0.20;;;6.70;99.90;;;;;;4397770;32;20066;-56
2020/12/24 12:16:53;;;;;;;0.45;0.30;;;6.60;99.90;;;;;;4398760;32;20061;-58
2020/12/24 12:19:18;;;;;;;0.30;0.30;;;6.60;99.90;;;;;;4401441;32;20058;-55
2020/12/24 12:21:44;;;;;;;0.28;0.28;;;6.60;99.90;;;;;;4402293;32;20066;-56
2020/12/24 12:24:09;;;;;;;0.30;0.30;;;6.40;99.90;;;;;;4400404;32;20141;-58
2020/12/24 12:26:35;;;;;;;0.28;0.28;;;6.50;99.90;;;;;;4401345;32;20078;-58
2020/12/24 12:29:00;;;;;;;0.20;0.20;;;6.50;99.90;;;;;;4402291;32;20162;-57
2020/12/24 12:31:26;;;;;;;0.25;0.25;;;6.40;99.90;;;;;;4402049;32;20405;-56
2020/12/24 12:33:52;;;;;;;0.20;0.20;;;6.40;99.90;;;;;;4399928;32;20081;-54
2020/12/24 12:36:19;;;;;;;0.30;0.30;;;6.30;99.90;;;;;;4402785;32;20109;-56
2020/12/24 12:38:48;;;;;;;0.45;0.45;;;6.20;99.90;;;;;;4400504;32;20073;-57
2020/12/24 12:41:15;;;;;;;0.25;0.25;;;6.20;99.90;;;;;;4400005;32;20062;-57
2020/12/24 12:43:41;;;;;;;0.30;0.30;;;6.20;99.90;;;;;;4399875;32;20424;-57
2020/12/24 12:46:07;;;;;;;0.30;0.30;;;6.20;99.90;;;;;;4401350;32;20630;-57
2020/12/24 12:48:33;;;;;;;0.22;0.22;;;6.30;99.90;;;;;;4399964;32;20113;-54
2020/12/24 12:50:58;;;;;;;0.22;0.22;;;6.50;99.90;;;;;;4400115;32;20524;-55
2020/12/24 12:53:24;;;;;;;0.35;0.35;;;6.50;99.90;;;;;;4401476;32;20058;-57